Time;durP1;ratioP1;P1;durP2;ratioP2;P2;SDS_P1;SDS_P2;PMS_P1;PMS_P2;Temp;Humidity;BMP_temperature;BMP_pressure;BME280_temperature;BME280_humidity;BME280_pressure;Samples;Min_cycle;Max_cycle;Signal;HPM_P1;HPM_P2
2020/12/29 00:00:34;;;;;;;2.22;1.45;;;;;;;;;;5082473;28;20097;-74
2020/12/29 00:03:00;;;;;;;2.05;1.30;;;;;;;;;;5067255;28;20036;-74
2020/12/29 00:05:26;;;;;;;2.53;1.40;;;;;;;;;;5081714;28;20115;-74
2020/12/29 00:07:55;;;;;;;3.53;1.40;;;;;;;;;;5082266;28;20036;-74
2020/12/29 00:10:21;;;;;;;2.95;1.80;;;;;;;;;;5082398;28;20111;-73
2020/12/29 00:12:48;;;;;;;3.40;1.55;;;;;;;;;;5066647;28;20498;-72
2020/12/29 00:15:14;;;;;;;4.10;2.00;;;;;;;;;;5066178;28;20494;-74
2020/12/29 00:17:40;;;;;;;2.95;1.70;;;;;;;;;;5066647;28;20563;-73
2020/12/29 00:20:06;;;;;;;1.95;1.27;;;;;;;;;;5066129;28;20470;-73
2020/12/29 00:22:32;;;;;;;1.60;1.20;;;;;;;;;;5066430;28;20372;-73
2020/12/29 00:24:58;;;;;;;4.63;1.30;;;;;;;;;;5081732;28;20277;-73
2020/12/29 00:27:24;;;;;;;2.22;1.45;;;;;;;;;;5069335;28;20631;-74
2020/12/29 00:29:51;;;;;;;2.95;1.50;;;;;;;;;;5085995;28;20029;-73
2020/12/29 00:32:19;;;;;;;1.88;1.10;;;;;;;;;;5069884;28;20074;-73
2020/12/29 00:34:46;;;;;;;1.60;1.10;;;;;;;;;;5083864;28;20479;-73
2020/12/29 00:37:12;;;;;;;1.77;1.17;;;;;;;;;;5085012;28;20055;-73
2020/12/29 00:39:38;;;;;;;1.70;1.20;;;;;;;;;;5070625;28;20463;-73
2020/12/29 00:42:04;;;;;;;0.98;0.80;;;;;;;;;;5070283;28;20039;-73
2020/12/29 00:44:29;;;;;;;1.50;0.80;;;;;;;;;;5069554;28;20135;-74
2020/12/29 00:46:55;;;;;;;2.42;1.30;;;;;;;;;;5085120;28;20028;-73
2020/12/29 00:49:21;;;;;;;1.80;1.20;;;;;;;;;;5072194;28;20012;-81
2020/12/29 00:51:51;;;;;;;3.15;1.50;;;;;;;;;;5073925;28;20406;-91
2020/12/29 01:18:11;;;;;;;4.78;1.75;;;;;;;;;;4998355;28;20558;-80
2020/12/29 01:20:37;;;;;;;3.75;2.30;;;;;;;;;;5011491;28;20022;-80
2020/12/29 01:23:03;;;;;;;3.65;1.67;;;;;;;;;;5010600;28;20036;-78
2020/12/29 01:25:33;;;;;;;3.08;1.85;;;;;;;;;;5008247;28;20073;-76
2020/12/29 01:27:59;;;;;;;3.53;1.90;;;;;;;;;;5008798;28;20033;-75
2020/12/29 01:30:25;;;;;;;2.20;1.40;;;;;;;;;;5008396;28;20018;-74
2020/12/29 01:32:51;;;;;;;3.38;1.77;;;;;;;;;;5008248;28;20112;-74
2020/12/29 01:35:17;;;;;;;2.70;1.60;;;;;;;;;;5007691;28;20124;-74
2020/12/29 01:37:43;;;;;;;2.50;1.50;;;;;;;;;;5009352;28;20080;-73
2020/12/29 01:40:10;;;;;;;2.47;0.90;;;;;;;;;;5009295;28;20022;-75
2020/12/29 01:42:36;;;;;;;2.28;1.58;;;;;;;;;;5008673;28;20036;-74
2020/12/29 01:45:06;;;;;;;2.40;1.50;;;;;;;;;;5007763;28;20030;-74
2020/12/29 01:47:33;;;;;;;2.50;1.30;;;;;;;;;;5009211;28;20026;-75
2020/12/29 01:49:59;;;;;;;3.17;1.38;;;;;;;;;;5009427;28;20052;-74
2020/12/29 01:52:25;;;;;;;1.42;0.98;;;;;;;;;;5008352;28;20029;-74
2020/12/29 01:54:51;;;;;;;2.13;1.35;;;;;;;;;;5008443;28;20117;-74
2020/12/29 01:57:17;;;;;;;2.20;1.30;;;;;;;;;;5008659;28;20030;-74
2020/12/29 01:59:43;;;;;;;2.03;1.35;;;;;;;;;;5007950;28;20068;-74
2020/12/29 02:02:09;;;;;;;1.23;0.80;;;;;;;;;;5009356;28;20813;-73
2020/12/29 02:04:36;;;;;;;1.60;1.10;;;;;;;;;;5007328;28;20025;-74
2020/12/29 02:07:02;;;;;;;2.45;1.10;;;;;;;;;;5009112;28;20104;-74
2020/12/29 02:09:29;;;;;;;1.73;1.05;;;;;;;;;;5009113;28;20105;-75
2020/12/29 02:11:55;;;;;;;1.70;1.00;;;;;;;;;;5009179;28;20026;-75
2020/12/29 02:14:20;;;;;;;1.73;1.00;;;;;;;;;;5007099;28;20070;-74
2020/12/29 02:16:47;;;;;;;1.27;0.77;;;;;;;;;;5009193;28;20053;-74
2020/12/29 02:19:12;;;;;;;1.35;0.80;;;;;;;;;;5009010;28;20049;-74
2020/12/29 02:21:39;;;;;;;0.75;0.68;;;;;;;;;;5009108;28;20127;-74
2020/12/29 02:24:06;;;;;;;1.70;0.90;;;;;;;;;;5006884;28;20451;-74
2020/12/29 02:26:33;;;;;;;2.28;0.80;;;;;;;;;;5008986;28;20065;-74
2020/12/29 02:29:00;;;;;;;1.33;0.90;;;;;;;;;;5008813;28;20034;-74
2020/12/29 02:31:26;;;;;;;1.83;0.90;;;;;;;;;;5003144;28;20558;-74
2020/12/29 02:33:53;;;;;;;1.88;0.90;;;;;;;;;;5004744;28;20077;-74
2020/12/29 02:36:19;;;;;;;1.20;0.70;;;;;;;;;;5007366;28;20034;-74
2020/12/29 02:38:45;;;;;;;2.25;0.75;;;;;;;;;;5008127;28;20425;-74
2020/12/29 02:41:15;;;;;;;1.67;0.73;;;;;;;;;;5008143;28;20022;-74
2020/12/29 02:43:42;;;;;;;0.85;0.60;;;;;;;;;;5008033;28;20026;-74
2020/12/29 02:46:08;;;;;;;1.15;0.70;;;;;;;;;;5007153;28;20030;-77
2020/12/29 03:02:02;;;;;;;1.77;0.60;;;;;;;;;;5128833;22;20047;-82
2020/12/29 03:04:28;;;;;;;1.17;0.80;;;;;;;;;;5092800;28;20054;-85
2020/12/29 03:06:54;;;;;;;2.80;1.00;;;;;;;;;;5091327;28;20478;-83
2020/12/29 03:09:20;;;;;;;2.70;0.90;;;;;;;;;;5088154;28;20030;-78
2020/12/29 03:11:46;;;;;;;2.83;0.90;;;;;;;;;;5088760;28;20034;-79
2020/12/29 03:14:13;;;;;;;2.17;0.90;;;;;;;;;;5088370;28;20025;-79
2020/12/29 03:16:39;;;;;;;4.05;0.90;;;;;;;;;;5072953;28;20020;-80
2020/12/29 03:19:05;;;;;;;3.30;1.00;;;;;;;;;;5088822;28;20113;-79
2020/12/29 03:21:31;;;;;;;3.55;1.00;;;;;;;;;;5088586;28;20020;-79
2020/12/29 03:23:57;;;;;;;4.65;1.13;;;;;;;;;;5088308;28;20613;-79
2020/12/29 03:26:25;;;;;;;4.40;1.00;;;;;;;;;;5088376;28;20025;-79
2020/12/29 03:28:51;;;;;;;3.13;1.08;;;2.30;99.90;;;;;;5088705;28;20028;-79
2020/12/29 03:31:36;;;;;;;2.00;1.10;;;;;;;;;;5088210;28;20044;-80
2020/12/29 03:34:02;;;;;;;1.70;1.10;;;;;;;;;;5088253;28;20029;-81
2020/12/29 03:36:28;;;;;;;2.78;1.20;;;;;;;;;;5088529;28;20032;-79
2020/12/29 03:38:54;;;;;;;4.35;0.95;;;;;;;;;;5088172;28;20017;-78
2020/12/29 03:41:20;;;;;;;2.15;1.05;;;;;;;;;;5088110;28;20024;-78
2020/12/29 03:43:46;;;;;;;2.53;1.27;;;;;;;;;;5072612;28;20151;-78
2020/12/29 03:46:12;;;;;;;4.07;1.40;;;;;;;;;;5083587;28;20504;-78
2020/12/29 03:48:37;;;;;;;5.57;0.90;;;2.00;99.90;;;;;;5051009;28;20032;-79
2020/12/29 03:51:03;;;;;;;2.30;0.90;;;2.20;99.90;;;;;;5050761;28;20618;-76
2020/12/29 05:06:22;;;;;;;3.17;0.80;;;;;;;;;;6284798;22;20321;-80
2020/12/29 05:08:49;;;;;;;2.00;0.90;;;;;;;;;;6270311;22;20000;-81
2020/12/29 05:11:16;;;;;;;3.08;0.75;;;;;;;;;;6254566;22;20451;-82
2020/12/29 05:13:43;;;;;;;1.10;0.60;;;;;;;;;;6281702;22;20042;-84
2020/12/29 05:16:11;;;;;;;5.35;0.90;;;;;;;;;;6253866;22;20226;-82
2020/12/29 05:18:37;;;;;;;4.05;0.88;;;;;;;;;;6254895;22;19996;-81
2020/12/29 05:21:03;;;;;;;6.85;1.20;;;;;;;;;;6254131;22;20459;-81
2020/12/29 05:23:30;;;;;;;5.75;1.00;;;;;;;;;;6253985;22;20010;-80
2020/12/29 05:25:56;;;;;;;4.78;1.00;;;;;;;;;;6253715;22;20045;-81
2020/12/29 05:28:26;;;;;;;3.50;1.08;;;;;;;;;;6254335;22;20460;-80
2020/12/29 05:30:53;;;;;;;9.23;1.02;;;;;;;;;;6254251;22;20000;-79
2020/12/29 05:33:19;;;;;;;7.47;1.25;;;;;;;;;;6254667;22;20041;-80
2020/12/29 05:35:45;;;;;;;6.10;1.35;;;;;;;;;;6253419;22;20049;-78
2020/12/29 05:38:12;;;;;;;3.90;1.00;;;;;;;;;;6254033;22;20003;-78
2020/12/29 05:40:38;;;;;;;2.03;0.80;;;;;;;;;;6254028;22;20003;-81
2020/12/29 05:43:04;;;;;;;13.20;1.60;;;;;;;;;;6254383;22;20011;-81
2020/12/29 05:45:31;;;;;;;4.35;0.90;;;;;;;;;;6253419;22;20004;-80
2020/12/29 05:48:00;;;;;;;4.90;1.20;;;;;;;;;;6254366;22;20003;-81
2020/12/29 05:50:27;;;;;;;7.10;0.93;;;;;;;;;;6255067;22;20010;-82
2020/12/29 05:52:54;;;;;;;4.83;0.90;;;;;;;;;;6254174;22;20096;-81
2020/12/29 05:55:21;;;;;;;6.32;1.15;;;;;;;;;;6253555;22;20328;-82
2020/12/29 05:58:05;;;;;;;5.35;1.20;;;;;;;;;;6253815;22;20010;-82
2020/12/29 06:00:31;;;;;;;7.03;0.98;;;;;;;;;;6254233;22;20428;-84
2020/12/29 06:02:58;;;;;;;9.65;1.20;;;;;;;;;;6252560;22;20016;-83
2020/12/29 06:05:25;;;;;;;3.67;1.17;;;;;;;;;;6246759;22;20011;-83
2020/12/29 06:07:55;;;;;;;5.22;1.10;;;;;;;;;;6246803;22;20007;-82
2020/12/29 06:10:22;;;;;;;8.77;0.90;;;;;;;;;;6247119;22;20004;-82
2020/12/29 06:12:52;;;;;;;2.07;0.90;;;;;;;;;;6247426;22;20771;-85
2020/12/29 06:15:22;;;;;;;7.50;1.00;;;;;;;;;;6246124;22;20007;-84
2020/12/29 06:17:53;;;;;;;4.13;1.20;;;;;;;;;;6247080;22;20421;-84
2020/12/29 06:20:19;;;;;;;4.05;0.93;;;;;;;;;;6246759;22;20008;-83
2020/12/29 06:22:45;;;;;;;6.82;1.10;;;;;;;;;;6246839;22;20341;-83
2020/12/29 06:25:16;;;;;;;8.50;1.58;;;;;;;;;;6245886;22;20004;-82
2020/12/29 06:27:45;;;;;;;7.30;1.58;;;;;;;;;;6247361;22;20010;-83
2020/12/29 06:30:25;;;;;;;3.95;1.00;;;;;;;;;;6247506;22;20015;-83
2020/12/29 06:32:56;;;;;;;10.32;1.10;;;;;;;;;;6246757;22;20003;-83
2020/12/29 06:35:22;;;;;;;5.25;1.92;;;;;;;;;;6246052;22;20000;-81
2020/12/29 06:38:12;;;;;;;7.32;1.35;;;;;;;;;;6247367;22;20540;-83
2020/12/29 06:40:39;;;;;;;19.40;9.60;;;;;;;;;;6247264;22;20029;-83
2020/12/29 06:43:08;;;;;;;16.97;8.37;;;;;;;;;;6246931;22;20030;-82
2020/12/29 06:45:35;;;;;;;2.83;0.82;;;;;;;;;;6246481;22;20234;-83
2020/12/29 06:48:01;;;;;;;8.25;2.00;;;;;;;;;;6246701;22;20007;-83
2020/12/29 06:50:33;;;;;;;8.25;1.33;;;;;;;;;;6246970;22;20095;-83
2020/12/29 06:53:00;;;;;;;11.10;2.97;;;;;;;;;;6246953;22;20014;-83
2020/12/29 06:55:45;;;;;;;3.13;1.25;;;;;;;;;;6246585;22;20015;-81
2020/12/29 06:58:13;;;;;;;7.32;1.95;;;;;;;;;;6246568;22;20329;-83
2020/12/29 07:00:39;;;;;;;7.55;1.35;;;;;;;;;;6274061;22;20046;-83
2020/12/29 07:03:05;;;;;;;14.73;2.15;;;;;;;;;;6246921;22;20444;-83
2020/12/29 07:05:35;;;;;;;4.20;1.10;;;;;;;;;;6246308;22;20018;-84
2020/12/29 07:08:02;;;;;;;5.80;1.48;;;;;;;;;;6246938;22;20054;-84
2020/12/29 07:10:34;;;;;;;6.70;1.60;;;;;;;;;;6247114;22;20061;-83
2020/12/29 07:13:19;;;;;;;10.80;1.70;;;;;;;;;;6246679;22;20391;-83
2020/12/29 07:15:49;;;;;;;10.13;1.67;;;;;;;;;;6245400;22;20022;-82
2020/12/29 07:18:28;;;;;;;4.38;1.30;;;;;;;;;;6246449;22;20039;-83
2020/12/29 07:20:56;;;;;;;4.38;1.55;;;;;;;;;;6246404;22;20445;-83
2020/12/29 07:23:23;;;;;;;5.10;1.40;;;;;;;;;;6246888;22;20008;-84
2020/12/29 07:25:52;;;;;;;3.03;1.15;;;;;;;;;;6246047;22;20003;-83
2020/12/29 07:28:19;;;;;;;8.23;1.85;;;;;;;;;;6246112;22;20286;-84
2020/12/29 07:30:46;;;;;;;34.73;19.57;;;;;;;;;;6246886;22;20004;-84
2020/12/29 07:33:12;;;;;;;25.00;13.02;;;;;;;;;;6246874;22;20318;-83
2020/12/29 07:35:39;;;;;;;3.55;1.17;;;;;;;;;;6243713;22;20027;-84
2020/12/29 07:38:10;;;;;;;3.03;1.27;;;;;;;;;;6244969;22;19995;-83
2020/12/29 07:40:36;;;;;;;3.67;1.20;;;;;;;;;;6245750;22;20008;-84
2020/12/29 07:43:02;;;;;;;6.43;1.17;;;;;;;;;;6245448;22;20039;-84
2020/12/29 07:45:28;;;;;;;5.60;1.90;;;;;;;;;;6244941;22;20102;-84
2020/12/29 07:47:54;;;;;;;6.95;1.15;;;;;;;;;;6245698;22;20039;-84
2020/12/29 07:50:20;;;;;;;2.75;1.20;;;;;;;;;;6245228;22;20035;-83
2020/12/29 07:52:46;;;;;;;8.27;1.20;;;;;;;;;;6245083;22;20012;-83
2020/12/29 07:55:16;;;;;;;2.65;1.13;;;;;;;;;;6244501;22;20008;-83
2020/12/29 07:57:43;;;;;;;7.28;1.30;;;;;;;;;;6244906;22;20059;-84
2020/12/29 08:00:09;;;;;;;;;;;;;;;;;;6246508;22;20348;-83
2020/12/29 08:02:35;;;;;;;7.20;1.58;;;;;;;;;;6246479;22;19899;-84
2020/12/29 08:05:01;;;;;;;6.45;1.50;;;;;;;;;;6271686;22;20018;-83
2020/12/29 08:07:27;;;;;;;11.32;1.90;;;;;;;;;;6246101;22;20090;-84
2020/12/29 08:09:53;;;;;;;5.03;2.00;;;;;;;;;;6246084;22;20011;-83
2020/12/29 08:12:20;;;;;;;8.70;2.13;;;;;;;;;;6245489;22;20087;-83
2020/12/29 08:14:46;;;;;;;8.43;2.20;;;;;;;;;;6245334;22;20429;-83
2020/12/29 08:17:12;;;;;;;13.35;2.08;;;;;;;;;;6246450;22;20437;-84
2020/12/29 08:19:38;;;;;;;8.57;2.17;;;;;;;;;;6245948;22;20035;-83
2020/12/29 08:22:27;;;;;;;9.13;2.38;;;;;;;;;;6246473;22;20007;-82
2020/12/29 08:24:53;;;;;;;6.70;2.20;;;;;;;;;;6246807;22;20443;-83
2020/12/29 08:27:19;;;;;;;6.82;1.50;;;;;;;;;;6246367;22;20007;-83
2020/12/29 08:29:45;;;;;;;6.47;1.50;;;;;;;;;;6245956;22;20031;-83
2020/12/29 08:32:12;;;;;;;10.32;1.60;;;;;;;;;;6245390;22;20011;-82
2020/12/29 08:34:45;;;;;;;7.17;1.63;;;;;;;;;;6244238;22;20035;-82
2020/12/29 08:37:13;;;;;;;7.60;1.60;;;;;;;;;;6245210;22;20512;-83
2020/12/29 08:39:42;;;;;;;8.07;1.40;;;;;;;;;;6245041;22;20444;-82
2020/12/29 08:42:09;;;;;;;4.45;1.40;;;;;;;;;;6244859;22;20015;-82
2020/12/29 08:44:42;;;;;;;7.40;1.58;;;;;;;;;;6244427;22;20190;-85
2020/12/29 08:47:09;;;;;;;7.25;1.50;;;;;;;;;;6246813;22;20078;-88
2020/12/29 08:49:35;;;;;;;4.88;1.27;;;;;;;;;;6247848;22;20000;-85
2020/12/29 08:52:01;;;;;;;5.05;1.60;;;;;;;;;;6246854;22;20056;-83
2020/12/29 08:54:34;;;;;;;2.97;1.00;;;;;;;;;;6246377;22;20614;-83
2020/12/29 08:57:01;;;;;;;4.53;1.27;;;;;;;;;;6246696;22;20004;-84
2020/12/29 08:59:34;;;;;;;5.88;1.42;;;;;;;;;;6246274;22;20007;-84
2020/12/29 09:02:00;;;;;;;3.80;1.38;;;;;;;;;;6246042;22;20709;-84
2020/12/29 09:04:33;;;;;;;7.88;2.33;;;;;;;;;;6244344;22;20077;-84
2020/12/29 09:07:01;;;;;;;5.72;1.42;;;;;;;;;;6246080;22;20379;-84
2020/12/29 09:09:27;;;;;;;10.23;1.77;;;;;;;;;;6246722;22;20016;-84
2020/12/29 09:12:12;;;;;;;9.85;1.60;;;2.20;99.90;;;;;;6245011;22;20386;-86
2020/12/29 09:14:39;;;;;;;5.00;1.67;;;;;;;;;;6245393;22;20034;-85
2020/12/29 09:17:06;;;;;;;6.72;3.00;;;;;;;;;;6245861;22;20318;-85
2020/12/29 09:19:32;;;;;;;5.43;1.92;;;;;;;;;;6245688;22;20010;-84
2020/12/29 09:22:05;;;;;;;9.15;4.43;;;;;;;;;;6245952;22;20203;-86
2020/12/29 09:24:31;;;;;;;8.60;2.40;;;;;;;;;;6244952;22;20087;-85
2020/12/29 09:26:57;;;;;;;11.77;4.93;;;;;;;;;;6245852;22;20506;-84
2020/12/29 09:29:23;;;;;;;11.65;6.47;;;;;;;;;;6245752;22;20004;-85
2020/12/29 09:31:53;;;;;;;8.77;3.80;;;;;;;;;;6245791;22;20042;-84
2020/12/29 09:34:19;;;;;;;5.05;2.53;;;;;;;;;;6244607;22;20023;-85
2020/12/29 09:36:45;;;;;;;3.00;1.70;;;;;;;;;;6245421;22;20007;-85
2020/12/29 09:39:25;;;;;;;9.68;2.38;;;;;;;;;;6247520;22;20004;-85
2020/12/29 09:41:54;;;;;;;3.85;1.90;;;;;;;;;;6247132;22;20007;-85
2020/12/29 09:44:20;;;;;;;4.90;2.25;;;;;;;;;;6246577;22;20014;-85
2020/12/29 09:46:46;;;;;;;3.85;1.75;;;;;;;;;;6248249;22;20053;-84
2020/12/29 09:49:12;;;;;;;5.22;2.40;;;;;;;;;;6247319;22;20039;-84
2020/12/29 09:51:38;;;;;;;3.53;1.52;;;;;;;;;;6248017;22;20004;-84
2020/12/29 09:54:04;;;;;;;3.50;1.05;;;;;;;;;;6246976;22;20031;-85
2020/12/29 09:56:31;;;;;;;3.03;1.20;;;;;;;;;;6247508;22;20004;-84
2020/12/29 09:58:57;;;;;;;1.90;0.90;;;;;;;;;;6247234;22;20011;-85
2020/12/29 10:01:23;;;;;;;2.05;0.80;;;;;;;;;;6247585;22;20007;-84
2020/12/29 10:03:49;;;;;;;1.08;0.77;;;;;;;;;;6247449;22;20000;-83
2020/12/29 10:06:15;;;;;;;1.00;0.60;;;;;;;;;;6247271;22;20012;-83
2020/12/29 10:08:41;;;;;;;1.80;0.80;;;;;;;;;;6247501;22;20007;-82
2020/12/29 10:11:07;;;;;;;2.95;0.90;;;;;;;;;;6246762;22;20004;-81
2020/12/29 10:13:33;;;;;;;0.70;0.60;;;;;;;;;;6247172;22;20517;-81
2020/12/29 10:15:59;;;;;;;3.95;1.15;;;;;;;;;;6244858;22;20010;-81
2020/12/29 10:18:25;;;;;;;0.60;0.50;;;;;;;;;;6246136;22;20050;-81
2020/12/29 10:20:52;;;;;;;1.92;1.20;;;;;;;;;;6246393;22;20432;-81
2020/12/29 10:23:18;;;;;;;2.05;1.30;;;;;;;;;;6246029;22;20038;-81
2020/12/29 10:25:44;;;;;;;3.65;1.23;;;;;;;;;;6244656;22;20000;-81
2020/12/29 10:28:10;;;;;;;2.17;1.00;;;;;;;;;;6245205;22;20010;-77
2020/12/29 10:30:36;;;;;;;2.65;0.90;;;;;;;;;;6243775;22;20432;-77
2020/12/29 10:33:02;;;;;;;1.73;1.05;;;;;;;;;;6243423;22;20003;-76
2020/12/29 10:35:28;;;;;;;3.70;1.50;;;;;;;;;;6268902;22;20326;-76
2020/12/29 10:37:54;;;;;;;2.08;1.10;;;;;;;;;;6270415;22;20002;-76
2020/12/29 10:40:20;;;;;;;5.18;2.20;;;;;;;;;;6242928;22;20004;-75
2020/12/29 10:42:46;;;;;;;2.70;1.40;;;;;;;;;;6243474;22;20596;-74
2020/12/29 10:45:13;;;;;;;3.70;1.95;;;;;;;;;;6269548;22;20339;-74
2020/12/29 10:47:39;;;;;;;2.45;1.00;;;;;;;;;;6268434;22;19999;-74
2020/12/29 10:50:05;;;;;;;1.88;0.98;;;;;;;;;;6242775;22;20049;-74
2020/12/29 10:52:31;;;;;;;0.70;0.52;;;;;;;;;;6242971;22;20008;-75
2020/12/29 10:54:57;;;;;;;0.93;0.60;;;;;;;;;;6269165;22;20065;-74
2020/12/29 10:57:22;;;;;;;2.50;0.80;;;;;;;;;;6240927;22;20014;-74
2020/12/29 10:59:48;;;;;;;1.15;0.65;;;;;;;;;;6268839;22;20700;-74
2020/12/29 11:02:14;;;;;;;2.50;0.90;;;;;;;;;;6242975;22;20018;-75
2020/12/29 11:04:40;;;;;;;1.35;0.52;;;;;;;;;;6241499;22;20491;-74
2020/12/29 11:07:06;;;;;;;1.50;0.70;;;;;;;;;;6269878;22;20000;-74
2020/12/29 11:09:32;;;;;;;1.48;0.70;;;;;;;;;;6242333;22;20091;-75
2020/12/29 11:11:58;;;;;;;1.48;0.80;;;;;;;;;;6242678;22;20404;-75
2020/12/29 11:14:24;;;;;;;1.92;0.60;;;;;;;;;;6269172;22;20004;-74
2020/12/29 11:16:50;;;;;;;1.48;0.60;;;;;;;;;;6242077;22;20012;-75
2020/12/29 11:19:17;;;;;;;4.13;0.70;;;;;;;;;;6242398;22;20018;-74
2020/12/29 11:21:45;;;;;;;1.73;0.70;;;;;;;;;;6269464;22;20000;-74
2020/12/29 11:24:11;;;;;;;1.30;0.68;;;;;;;;;;6268323;22;20015;-75
2020/12/29 11:26:38;;;;;;;1.40;0.63;;;;;;;;;;6269696;22;20004;-75
2020/12/29 11:29:05;;;;;;;3.35;1.50;;;;;;;;;;6242328;22;20342;-74
2020/12/29 11:31:31;;;;;;;1.85;1.17;;;;;;;;;;6242120;22;20010;-75
2020/12/29 11:33:57;;;;;;;1.48;0.80;;;;;;;;;;6242150;22;20008;-74
2020/12/29 11:36:23;;;;;;;1.58;0.82;;;;;;;;;;6242257;22;20004;-75
2020/12/29 11:38:49;;;;;;;3.08;0.80;;;;;;;;;;6266303;22;20004;-75
2020/12/29 11:41:16;;;;;;;2.30;1.13;;;;;;;;;;6269239;22;20008;-74
2020/12/29 11:43:42;;;;;;;2.22;0.75;;;;;;;;;;6241325;22;20000;-74
2020/12/29 11:46:08;;;;;;;1.40;0.65;;;;;;;;;;6241227;22;20503;-74
2020/12/29 11:48:35;;;;;;;1.38;0.80;;;;;;;;;;6265269;22;20025;-75
2020/12/29 11:51:01;;;;;;;2.07;1.13;;;;;;;;;;6268720;22;20073;-75
2020/12/29 11:53:27;;;;;;;2.03;0.85;;;;;;;;;;6241969;22;20007;-74
2020/12/29 11:55:53;;;;;;;1.27;0.82;;;;;;;;;;6267810;22;20007;-74
2020/12/29 11:58:19;;;;;;;1.52;0.90;;;;;;;;;;6241383;22;20008;-75
2020/12/29 12:00:45;;;;;;;4.80;1.10;;;;;;;;;;6268624;22;20004;-74
2020/12/29 12:03:11;;;;;;;2.10;1.10;;;;;;;;;;6240860;22;20007;-74
2020/12/29 12:05:37;;;;;;;3.00;1.10;;;;;;;;;;6240631;22;20011;-74
2020/12/29 12:08:03;;;;;;;2.40;1.20;;;;;;;;;;6241245;22;20141;-74
2020/12/29 12:10:29;;;;;;;24.83;12.80;;;;;;;;;;6241004;22;20022;-75
2020/12/29 12:12:55;;;;;;;4.10;2.60;;;;;;;;;;6268542;22;20578;-73
2020/12/29 12:15:22;;;;;;;13.25;7.30;;;;;;;;;;6267788;22;20007;-72
2020/12/29 12:17:47;;;;;;;5.43;1.50;;;2.70;99.90;;;;;;6241074;22;20008;-75
2020/12/29 12:20:13;;;;;;;3.50;1.60;;;4.80;99.90;;;;;;6241308;22;20456;-73
2020/12/29 12:22:38;;;;;;;2.17;1.30;;;4.80;99.90;;;;;;6268894;22;20003;-76
2020/12/29 12:25:04;;;;;;;2.35;1.25;;;;;;;;;;6240396;22;20007;-74
2020/12/29 12:27:31;;;;;;;2.60;1.20;;;;;;;;;;6241650;22;20065;-74
2020/12/29 12:29:57;;;;;;;2.05;1.17;;;;;;;;;;6268707;22;20000;-73
2020/12/29 12:32:23;;;;;;;6.60;1.70;;;;;;;;;;6241264;22;20447;-75
2020/12/29 12:34:49;;;;;;;3.13;1.30;;;;;;;;;;6268013;22;20004;-74
2020/12/29 12:37:16;;;;;;;5.57;1.60;;;;;;;;;;6268763;22;20089;-74
2020/12/29 12:39:42;;;;;;;5.85;1.75;;;;;;;;;;6267844;22;20011;-75
2020/12/29 12:42:09;;;;;;;3.70;1.20;;;;;;;;;;6241225;22;20003;-74
2020/12/29 12:44:35;;;;;;;4.50;1.47;;;;;;;;;;6239149;22;20015;-74
2020/12/29 12:47:01;;;;;;;4.70;1.50;;;;;;;;;;6267704;22;20010;-74
2020/12/29 12:49:27;;;;;;;2.97;1.23;;;;;;;;;;6267975;22;19996;-74
2020/12/29 12:51:53;;;;;;;4.53;1.50;;;;;;;;;;6241251;22;20012;-76
2020/12/29 12:54:21;;;;;;;4.95;1.20;;;;;;;;;;6239716;22;20031;-76
2020/12/29 12:56:51;;;;;;;3.72;1.25;;;;;;;;;;6241799;22;20008;-76
2020/12/29 12:59:17;;;;;;;3.45;1.50;;;;;;;;;;6268190;22;20688;-75
2020/12/29 13:01:43;;;;;;;3.40;1.50;;;;;;;;;;6267912;22;20007;-76
2020/12/29 13:04:09;;;;;;;4.25;1.50;;;;;;;;;;6240069;22;20006;-76
2020/12/29 13:06:35;;;;;;;6.47;1.67;;;;;;;;;;6268626;22;20003;-75
2020/12/29 13:09:01;;;;;;;2.20;1.20;;;;;;;;;;6267952;22;20018;-73
2020/12/29 13:11:27;;;;;;;3.78;1.52;;;;;;;;;;6268669;22;20074;-73
2020/12/29 13:13:54;;;;;;;4.82;1.80;;;;;;;;;;6269647;22;20018;-74
2020/12/29 13:16:20;;;;;;;5.70;1.80;;;;;;;;;;6241947;22;19999;-73
2020/12/29 13:18:47;;;;;;;5.53;1.80;;;;;;;;;;6270571;22;20191;-75
2020/12/29 13:21:14;;;;;;;6.40;2.10;;;;;;;;;;6270821;22;20026;-73
2020/12/29 13:23:40;;;;;;;5.00;1.65;;;;;;;;;;6242976;22;20008;-73
2020/12/29 13:26:06;;;;;;;3.63;1.65;;;;;;;;;;6269690;22;19996;-74
2020/12/29 13:28:32;;;;;;;7.00;4.60;;;;;;;;;;6243476;22;20045;-73
2020/12/29 13:30:58;;;;;;;9.20;4.95;;;;;;;;;;6242988;22;20333;-74
2020/12/29 13:33:24;;;;;;;11.07;6.85;;;;;;;;;;6242577;22;20057;-74
2020/12/29 13:35:50;;;;;;;9.18;2.40;;;;;;;;;;6242223;22;20322;-74
2020/12/29 13:38:17;;;;;;;6.68;2.50;;;;;;;;;;6243382;22;20004;-74
2020/12/29 13:40:43;;;;;;;7.53;3.00;;;;;;;;;;6242780;22;20007;-74
2020/12/29 13:43:09;;;;;;;6.85;2.72;;;;;;;;;;6243111;22;20014;-74
2020/12/29 13:45:35;;;;;;;4.32;1.88;;;;;;;;;;6241968;22;20318;-74
2020/12/29 13:48:01;;;;;;;3.85;1.75;;;;;;;;;;6270196;22;20022;-74
2020/12/29 13:50:26;;;;;;;3.65;1.70;;;5.10;99.90;;;;;;6243167;22;20022;-74
2020/12/29 13:52:52;;;;;;;6.32;2.20;;;5.90;99.90;;;;;;6269894;22;20361;-74
2020/12/29 13:55:18;;;;;;;5.70;1.77;;;5.90;99.90;;;;;;6241892;22;20570;-74
2020/12/29 13:57:44;;;;;;;5.50;2.00;;;5.90;99.90;;;;;;6242868;22;20004;-73
2020/12/29 14:00:09;;;;;;;5.15;1.70;;;5.90;99.90;;;;;;6269705;22;20004;-74
2020/12/29 14:02:35;;;;;;;5.40;1.90;;;5.90;99.90;;;;;;6269876;22;20078;-74
2020/12/29 14:05:01;;;;;;;7.80;1.70;;;5.70;99.90;;;;;;6241354;22;20015;-73
2020/12/29 14:07:26;;;;;;;4.50;1.77;;;5.80;99.90;;;;;;6242738;22;20069;-74
2020/12/29 14:09:52;;;;;;;5.25;1.80;;;5.80;99.90;;;;;;6269950;22;20621;-74
2020/12/29 14:12:17;;;;;;;5.75;1.60;;;5.80;99.90;;;;;;6242945;22;20004;-73
2020/12/29 14:14:43;;;;;;;4.78;1.80;;;5.80;99.90;;;;;;6242097;22;20090;-73
2020/12/29 14:17:09;;;;;;;4.03;1.60;;;5.80;99.90;;;;;;6269938;22;20011;-74
2020/12/29 14:19:34;;;;;;;6.20;1.92;;;5.90;99.90;;;;;;6242730;22;20035;-74
2020/12/29 14:22:00;;;;;;;5.65;1.80;;;5.90;99.90;;;;;;6242472;22;20459;-73
2020/12/29 14:24:25;;;;;;;24.83;11.73;;;5.90;99.90;;;;;;6241704;22;20008;-74
2020/12/29 14:26:53;;;;;;;5.30;2.67;;;5.70;99.90;;;;;;6243091;22;19999;-73
2020/12/29 14:29:20;;;;;;;12.35;6.63;;;5.70;99.90;;;;;;6241368;22;20011;-74
2020/12/29 14:31:51;;;;;;;4.53;2.05;;;5.50;99.90;;;;;;6241509;22;20030;-73
2020/12/29 14:34:17;;;;;;;6.47;2.00;;;5.50;99.90;;;;;;6269074;22;20453;-73
2020/12/29 14:36:44;;;;;;;5.38;1.77;;;5.60;99.90;;;;;;6269776;22;20058;-75
2020/12/29 14:39:10;;;;;;;5.47;1.98;;;5.40;99.90;;;;;;6269430;22;20075;-74
2020/12/29 14:41:38;;;;;;;4.40;1.70;;;5.40;99.90;;;;;;6242419;22;19999;-74
2020/12/29 14:44:04;;;;;;;3.97;1.48;;;;;;;;;;6241205;22;20007;-74
2020/12/29 14:46:31;;;;;;;2.45;1.25;;;;;;;;;;6269296;22;20052;-74
2020/12/29 14:48:58;;;;;;;3.75;1.40;;;;;;;;;;6242855;22;20011;-74
2020/12/29 14:51:24;;;;;;;4.80;1.90;;;;;;;;;;6268973;22;20006;-74
2020/12/29 14:53:49;;;;;;;2.70;1.25;;;;;;;;;;6243013;22;20050;-73
2020/12/29 14:56:28;;;;;;;3.80;1.35;;;;;;;;;;6268786;22;19996;-74
2020/12/29 14:58:56;;;;;;;4.30;1.40;;;;;;;;;;6241915;22;20007;-74
2020/12/29 15:01:30;;;;;;;4.15;1.52;;;;;;;;;;6241939;22;20340;-74
2020/12/29 15:03:56;;;;;;;3.78;1.35;;;;;;;;;;6269664;22;20003;-74
2020/12/29 15:06:25;;;;;;;3.90;1.58;;;;;;;;;;6268157;22;20015;-74
2020/12/29 15:08:51;;;;;;;4.45;1.85;;;;;;;;;;6241915;22;20031;-74
2020/12/29 15:11:18;;;;;;;11.23;5.05;;;;;;;;;;6269317;22;20229;-75
2020/12/29 15:13:44;;;;;;;5.15;2.85;;;;;;;;;;6241892;22;20004;-74
2020/12/29 15:16:10;;;;;;;7.80;2.88;;;;;;;;;;6241152;22;20011;-74
2020/12/29 15:18:36;;;;;;;9.18;3.85;;;;;;;;;;6242279;22;20007;-74
2020/12/29 15:21:02;;;;;;;6.10;2.92;;;;;;;;;;6268914;22;20007;-74
2020/12/29 15:23:28;;;;;;;6.45;3.33;;;;;;;;;;6268638;22;20440;-74
2020/12/29 15:25:55;;;;;;;8.10;3.83;;;;;;;;;;6240633;22;20012;-75
2020/12/29 15:28:21;;;;;;;10.15;6.47;;;;;;;;;;6269323;22;19999;-74
2020/12/29 15:30:47;;;;;;;11.38;6.10;;;;;;;;;;6241670;22;20035;-74
2020/12/29 15:33:13;;;;;;;9.55;5.50;;;;;;;;;;6242906;22;20332;-75
2020/12/29 15:35:39;;;;;;;11.68;4.93;;;;;;;;;;6267472;22;20423;-75
2020/12/29 15:38:05;;;;;;;9.48;4.43;;;;;;;;;;6241154;22;20018;-74
2020/12/29 15:40:31;;;;;;;10.13;4.05;;;;;;;;;;6268909;22;20297;-75
2020/12/29 15:42:57;;;;;;;7.97;3.25;;;;;;;;;;6268793;22;20030;-74
2020/12/29 15:45:23;;;;;;;6.55;3.63;;;;;;;;;;6268013;22;20420;-74
2020/12/29 15:47:49;;;;;;;9.68;4.38;;;;;;;;;;6241772;22;20441;-74
2020/12/29 15:50:15;;;;;;;9.25;5.00;;;;;;;;;;6241313;22;20057;-74
2020/12/29 15:52:41;;;;;;;9.45;4.63;;;;;;;;;;6267989;22;20354;-75
2020/12/29 15:55:07;;;;;;;6.75;3.20;;;;;;;;;;6267719;22;20007;-74
2020/12/29 15:57:33;;;;;;;4.97;2.55;;;;;;;;;;6268879;22;20097;-74
2020/12/29 15:59:59;;;;;;;8.65;3.25;;;;;;;;;;6240929;22;20110;-75
2020/12/29 16:02:25;;;;;;;5.22;2.67;;;;;;;;;;6241424;22;20209;-75
2020/12/29 16:04:51;;;;;;;5.60;2.60;;;;;;;;;;6240946;22;20007;-74
2020/12/29 16:07:17;;;;;;;7.57;3.88;;;;;;;;;;6266387;22;20083;-74
2020/12/29 16:09:43;;;;;;;5.90;3.40;;;;;;;;;;6241162;22;20082;-74
2020/12/29 16:12:09;;;;;;;6.03;2.70;;;;;;;;;;6241451;22;20429;-74
2020/12/29 16:14:35;;;;;;;7.18;3.30;;;;;;;;;;6239958;22;20078;-74
2020/12/29 16:17:01;;;;;;;8.68;4.35;;;;;;;;;;6268539;22;20007;-74
2020/12/29 16:19:27;;;;;;;10.25;4.38;;;;;;;;;;6268514;22;20011;-74
2020/12/29 16:21:53;;;;;;;9.05;4.00;;;;;;;;;;6241290;22;20061;-74